Time;durP1;ratioP1;P1;durP2;ratioP2;P2;SDS_P1;SDS_P2;PMS_P1;PMS_P2;Temp;Humidity;BMP_temperature;BMP_pressure;BME280_temperature;BME280_humidity;BME280_pressure;Samples;Min_cycle;Max_cycle;Signal;HPM_P1;HPM_P2
2021/08/14 00:01:11;;;;;;;6.17;5.57;;;23.10;99.90;;;;;;5033843;28;20462;-69
2021/08/14 00:03:38;;;;;;;8.97;6.40;;;23.00;99.90;;;;;;5033815;28;20493;-70
2021/08/14 00:06:05;;;;;;;6.67;5.70;;;23.00;99.90;;;;;;5033745;28;20534;-70
2021/08/14 00:08:33;;;;;;;8.20;6.63;;;22.90;99.90;;;;;;5033992;28;20478;-69
2021/08/14 00:11:00;;;;;;;8.27;6.63;;;22.90;99.90;;;;;;5033999;28;20546;-70
2021/08/14 00:13:27;;;;;;;7.40;6.10;;;22.70;99.90;;;;;;5033997;28;20541;-70
2021/08/14 00:15:53;;;;;;;5.53;4.93;;;22.70;99.90;;;;;;5033446;28;20831;-70
2021/08/14 00:18:20;;;;;;;6.73;6.10;;;22.60;99.90;;;;;;5034084;28;20805;-70
2021/08/14 00:20:47;;;;;;;6.43;5.30;;;22.60;99.90;;;;;;5033558;28;21052;-70
2021/08/14 00:23:14;;;;;;;8.33;5.90;;;22.50;99.90;;;;;;5033858;28;20443;-70
2021/08/14 00:25:44;;;;;;;6.10;5.50;;;22.50;99.90;;;;;;5033490;28;20538;-70
2021/08/14 00:28:11;;;;;;;6.70;5.70;;;22.50;99.90;;;;;;5033270;28;20525;-70
2021/08/14 00:30:38;;;;;;;5.33;4.83;;;22.50;99.90;;;;;;5033681;28;20908;-70
2021/08/14 00:33:05;;;;;;;6.47;5.80;;;22.50;99.90;;;;;;5033671;28;20442;-70
2021/08/14 00:35:31;;;;;;;5.60;5.07;;;22.40;99.90;;;;;;5033361;28;20577;-70
2021/08/14 00:37:58;;;;;;;7.37;5.20;;;22.40;99.90;;;;;;5033612;28;20853;-70
2021/08/14 00:40:25;;;;;;;5.53;4.77;;;22.40;99.90;;;;;;5033603;28;20553;-70
2021/08/14 00:42:53;;;;;;;6.00;5.40;;;22.40;99.90;;;;;;5033521;28;20540;-70
2021/08/14 00:45:20;;;;;;;6.07;5.00;;;22.40;99.90;;;;;;5033257;28;20897;-70
2021/08/14 00:47:47;;;;;;;7.77;5.70;;;22.30;99.90;;;;;;5033277;28;21021;-70
2021/08/14 00:50:14;;;;;;;6.23;5.63;;;22.10;99.90;;;;;;5033137;28;20972;-69
2021/08/14 00:52:41;;;;;;;6.20;5.57;;;22.10;99.90;;;;;;5033457;28;20534;-70
2021/08/14 00:55:09;;;;;;;7.00;5.77;;;22.10;99.90;;;;;;5033122;28;20522;-69
2021/08/14 00:57:36;;;;;;;8.33;6.30;;;22.00;99.90;;;;;;5033520;28;20459;-70
2021/08/14 01:00:06;;;;;;;6.87;6.07;;;21.90;99.90;;;;;;5033220;28;20474;-70
2021/08/14 01:02:34;;;;;;;6.87;5.73;;;21.90;99.90;;;;;;5033161;28;21021;-70
2021/08/14 01:05:02;;;;;;;7.20;6.50;;;21.90;99.90;;;;;;5033136;28;20863;-70
2021/08/14 01:07:29;;;;;;;7.03;5.40;;;21.80;99.90;;;;;;5033149;28;20453;-70
2021/08/14 01:09:56;;;;;;;6.50;5.80;;;21.80;99.90;;;;;;5033180;28;20555;-70
2021/08/14 01:12:23;;;;;;;6.90;6.03;;;21.80;99.90;;;;;;5032977;28;20450;-70
2021/08/14 01:14:50;;;;;;;6.47;5.87;;;21.80;99.90;;;;;;5032990;28;20446;-70
2021/08/14 01:17:21;;;;;;;8.03;5.90;;;21.90;99.90;;;;;;5032999;28;20466;-70
2021/08/14 01:19:48;;;;;;;7.90;6.50;;;21.90;99.90;;;;;;5032999;28;21004;-70
2021/08/14 01:22:16;;;;;;;9.13;6.10;;;21.90;99.90;;;;;;5033213;28;20451;-70
2021/08/14 01:24:44;;;;;;;7.70;5.77;;;21.90;99.90;;;;;;5032873;28;20533;-70
2021/08/14 01:27:13;;;;;;;6.10;5.50;;;21.90;99.90;;;;;;5033125;28;20445;-70
2021/08/14 01:29:41;;;;;;;7.40;6.40;;;21.90;99.90;;;;;;5033083;28;20506;-70
2021/08/14 01:32:09;;;;;;;7.03;5.40;;;21.90;99.90;;;;;;5033096;28;20538;-70
2021/08/14 01:34:37;;;;;;;6.70;6.00;;;21.90;99.90;;;;;;5033066;28;20537;-70
2021/08/14 01:37:05;;;;;;;6.00;5.40;;;21.80;99.90;;;;;;5032824;28;20891;-70
2021/08/14 01:39:32;;;;;;;6.40;5.80;;;21.70;99.90;;;;;;5033777;28;21050;-70
2021/08/14 01:42:01;;;;;;;7.00;5.57;;;21.70;99.90;;;;;;5036782;28;20537;-70
2021/08/14 01:44:31;;;;;;;8.57;5.57;;;21.60;99.90;;;;;;5036705;28;20536;-70
2021/08/14 01:46:58;;;;;;;6.70;6.00;;;21.50;99.90;;;;;;5036529;28;20441;-70
2021/08/14 01:49:25;;;;;;;7.17;5.87;;;21.60;99.90;;;;;;5036806;28;20467;-70
2021/08/14 01:51:52;;;;;;;6.60;6.00;;;21.60;99.90;;;;;;5036592;28;20820;-70
2021/08/14 01:54:20;;;;;;;6.90;5.93;;;21.60;99.90;;;;;;5036513;28;20473;-70
2021/08/14 01:56:48;;;;;;;6.83;5.80;;;21.60;99.90;;;;;;5036256;28;20493;-70
2021/08/14 01:59:16;;;;;;;6.40;5.80;;;21.60;99.90;;;;;;5036367;28;20553;-70
2021/08/14 02:01:44;;;;;;;6.50;5.90;;;21.50;99.90;;;;;;5036506;28;20486;-70
2021/08/14 02:04:11;;;;;;;7.10;5.90;;;21.60;99.90;;;;;;5036410;28;20963;-70
2021/08/14 02:06:40;;;;;;;5.93;5.33;;;21.50;99.90;;;;;;5035898;28;20451;-70
2021/08/14 02:09:06;;;;;;;7.03;6.20;;;21.50;99.90;;;;;;5035931;28;21011;-70
2021/08/14 02:11:37;;;;;;;7.60;6.13;;;21.50;99.90;;;;;;5036020;28;20536;-70
2021/08/14 02:14:05;;;;;;;7.27;6.10;;;21.40;99.90;;;;;;5036200;28;20500;-70
2021/08/14 02:16:33;;;;;;;7.60;6.43;;;21.30;99.90;;;;;;5035700;28;20498;-70
2021/08/14 02:19:02;;;;;;;6.87;5.90;;;21.40;99.90;;;;;;5036516;28;20540;-70
2021/08/14 02:21:29;;;;;;;7.03;6.33;;;21.30;99.90;;;;;;5035791;28;20537;-70
2021/08/14 02:23:56;;;;;;;7.33;6.53;;;21.30;99.90;;;;;;5036039;28;20452;-70
2021/08/14 02:26:23;;;;;;;7.30;6.60;;;21.30;99.90;;;;;;5035797;28;20453;-70
2021/08/14 02:28:50;;;;;;;6.30;5.70;;;21.30;99.90;;;;;;5035759;28;20454;-70
2021/08/14 02:31:17;;;;;;;5.93;5.40;;;21.30;99.90;;;;;;5035940;28;20464;-70
2021/08/14 02:33:44;;;;;;;6.73;6.03;;;21.30;99.90;;;;;;5036352;28;20539;-70
2021/08/14 02:36:13;;;;;;;6.80;6.07;;;21.20;99.90;;;;;;5035492;28;20492;-70
2021/08/14 02:38:41;;;;;;;6.40;5.80;;;21.20;99.90;;;;;;5035656;28;20454;-70
2021/08/14 02:41:08;;;;;;;7.53;6.70;;;21.20;99.90;;;;;;5035931;28;20477;-70
2021/08/14 02:43:36;;;;;;;8.00;6.70;;;21.30;99.90;;;;;;5035568;28;20441;-70
2021/08/14 02:46:03;;;;;;;6.27;5.63;;;21.20;99.90;;;;;;5035217;28;20468;-70
2021/08/14 02:48:32;;;;;;;7.43;6.47;;;21.10;99.90;;;;;;5035463;28;20536;-70
2021/08/14 02:50:59;;;;;;;6.67;5.80;;;21.00;99.90;;;;;;5035149;28;20491;-70
2021/08/14 02:53:27;;;;;;;7.37;6.40;;;21.00;99.90;;;;;;5035462;28;20533;-70
2021/08/14 02:55:55;;;;;;;8.37;6.60;;;21.00;99.90;;;;;;5035037;28;20572;-70
2021/08/14 02:58:21;;;;;;;6.57;5.90;;;21.10;99.90;;;;;;5035345;28;20442;-70
2021/08/14 03:00:48;;;;;;;7.70;6.20;;;21.10;99.90;;;;;;5035003;28;20474;-70
2021/08/14 03:03:15;;;;;;;9.50;7.63;;;21.10;99.90;;;;;;5035250;28;20804;-70
2021/08/14 03:05:42;;;;;;;7.30;6.60;;;21.00;99.90;;;;;;5035043;28;20533;-69
2021/08/14 03:08:10;;;;;;;8.77;7.27;;;21.10;99.90;;;;;;5035135;28;20820;-70
2021/08/14 03:10:39;;;;;;;11.70;7.47;;;21.00;99.90;;;;;;5035087;28;20465;-70
2021/08/14 03:13:06;;;;;;;7.40;6.70;;;21.00;99.90;;;;;;5035052;28;20445;-70
2021/08/14 03:15:33;;;;;;;8.17;7.33;;;20.90;99.90;;;;;;5034499;28;20453;-71
2021/08/14 03:17:59;;;;;;;8.33;7.27;;;20.80;99.90;;;;;;5035003;28;20442;-70
2021/08/14 03:20:26;;;;;;;8.70;6.47;;;20.80;99.90;;;;;;5034899;28;20470;-70
2021/08/14 03:22:53;;;;;;;7.17;6.20;;;20.80;99.90;;;;;;5034719;28;20446;-70
2021/08/14 03:25:20;;;;;;;8.70;6.37;;;20.80;99.90;;;;;;5034837;28;20442;-70
2021/08/14 03:27:48;;;;;;;7.20;6.30;;;20.80;99.90;;;;;;5034742;28;20451;-70
2021/08/14 03:30:16;;;;;;;7.13;6.40;;;20.80;99.90;;;;;;5034734;28;20472;-70
2021/08/14 03:32:44;;;;;;;7.53;6.80;;;20.80;99.90;;;;;;5034695;28;20450;-70
2021/08/14 03:35:11;;;;;;;10.20;7.20;;;20.80;99.90;;;;;;5034453;28;20446;-70
2021/08/14 03:37:38;;;;;;;8.20;6.57;;;20.80;99.90;;;;;;5034434;28;20488;-70
2021/08/14 03:40:07;;;;;;;7.03;6.33;;;20.80;99.90;;;;;;5034317;28;20480;-70
2021/08/14 03:42:34;;;;;;;7.23;6.23;;;20.70;99.90;;;;;;5034740;28;20529;-70
2021/08/14 03:45:02;;;;;;;7.70;6.90;;;20.70;99.90;;;;;;5034518;28;20545;-70
2021/08/14 03:47:29;;;;;;;9.40;6.63;;;20.70;99.90;;;;;;5034426;28;20812;-70
2021/08/14 03:49:56;;;;;;;8.23;6.47;;;20.80;99.90;;;;;;5034132;28;20480;-70
2021/08/14 03:52:23;;;;;;;8.10;7.30;;;20.60;99.90;;;;;;5034362;28;20965;-70
2021/08/14 03:54:50;;;;;;;8.30;6.87;;;20.70;99.90;;;;;;5034005;28;20954;-70
2021/08/14 03:57:17;;;;;;;8.23;6.87;;;20.70;99.90;;;;;;5034197;28;20575;-70
2021/08/14 03:59:44;;;;;;;7.50;6.60;;;20.60;99.90;;;;;;5034448;28;20832;-70
2021/08/14 04:02:12;;;;;;;7.30;6.50;;;20.70;99.90;;;;;;5033314;28;21023;-70
2021/08/14 04:04:39;;;;;;;8.30;6.77;;;20.70;99.90;;;;;;5034113;28;20449;-70
2021/08/14 04:07:06;;;;;;;7.63;6.43;;;20.60;99.90;;;;;;5033946;28;20442;-70
2021/08/14 04:09:33;;;;;;;7.00;6.40;;;20.50;99.90;;;;;;5033961;28;20467;-70
2021/08/14 04:11:59;;;;;;;8.13;6.57;;;20.50;99.90;;;;;;5034194;28;20557;-70
2021/08/14 04:14:26;;;;;;;9.67;7.53;;;20.50;99.90;;;;;;5033939;28;20453;-70
2021/08/14 04:16:54;;;;;;;8.03;7.23;;;20.50;99.90;;;;;;5033481;28;20485;-69
2021/08/14 04:19:22;;;;;;;7.80;6.90;;;20.40;99.90;;;;;;5033788;28;20466;-70
2021/08/14 04:21:49;;;;;;;8.37;7.47;;;20.40;99.90;;;;;;5033558;28;20493;-70
2021/08/14 04:24:15;;;;;;;7.87;7.00;;;20.40;99.90;;;;;;5033752;28;20476;-70
2021/08/14 04:26:42;;;;;;;8.53;6.93;;;20.40;99.90;;;;;;5033655;28;20473;-70
2021/08/14 04:29:09;;;;;;;11.73;7.00;;;20.30;99.90;;;;;;5033684;28;20456;-70
2021/08/14 04:31:36;;;;;;;8.70;7.10;;;20.30;99.90;;;;;;5033968;28;20545;-70
2021/08/14 04:34:03;;;;;;;8.03;7.27;;;20.30;99.90;;;;;;5033644;28;20794;-70
2021/08/14 04:36:31;;;;;;;7.37;6.57;;;20.30;99.90;;;;;;5033128;28;20488;-70
2021/08/14 04:38:58;;;;;;;7.17;6.47;;;20.30;99.90;;;;;;5033306;28;20548;-70
2021/08/14 04:41:25;;;;;;;7.13;6.40;;;20.40;99.90;;;;;;5033353;28;21013;-70
2021/08/14 04:43:52;;;;;;;8.80;6.13;;;20.40;99.90;;;;;;5033557;28;20446;-70
2021/08/14 04:46:18;;;;;;;8.30;6.40;;;20.40;99.90;;;;;;5033252;28;20448;-70
2021/08/14 04:48:45;;;;;;;7.77;6.87;;;20.40;99.90;;;;;;5033487;28;20545;-70
2021/08/14 04:51:12;;;;;;;7.33;6.50;;;20.40;99.90;;;;;;5033646;28;20478;-70
2021/08/14 04:53:40;;;;;;;7.40;6.37;;;20.30;99.90;;;;;;5033475;28;20449;-69
2021/08/14 04:56:07;;;;;;;7.27;6.50;;;20.30;99.90;;;;;;5033202;28;20452;-70
2021/08/14 04:58:34;;;;;;;7.43;6.67;;;20.40;99.90;;;;;;5033383;28;20444;-70
2021/08/14 05:01:01;;;;;;;7.27;6.40;;;20.40;99.90;;;;;;5033397;28;20476;-69
2021/08/14 05:03:28;;;;;;;8.23;6.87;;;20.30;99.90;;;;;;5033433;28;20442;-70
2021/08/14 05:05:55;;;;;;;7.60;6.80;;;20.40;99.90;;;;;;5033165;28;20459;-70
2021/08/14 05:08:22;;;;;;;10.30;7.13;;;20.40;99.90;;;;;;5033414;28;20444;-70
2021/08/14 05:10:50;;;;;;;7.13;6.30;;;20.30;99.90;;;;;;5033300;28;20477;-70
2021/08/14 05:13:17;;;;;;;8.20;6.63;;;20.30;99.90;;;;;;5034055;28;20793;-69
2021/08/14 05:15:44;;;;;;;7.67;6.87;;;20.40;99.90;;;;;;5036899;28;20467;-70
2021/08/14 05:18:11;;;;;;;8.80;7.30;;;20.40;99.90;;;;;;5037276;28;20576;-69
2021/08/14 05:20:37;;;;;;;8.20;7.03;;;20.50;99.90;;;;;;5037202;28;20473;-70
2021/08/14 05:23:04;;;;;;;8.07;7.27;;;20.50;99.90;;;;;;5036905;28;20959;-70
2021/08/14 05:25:31;;;;;;;10.40;8.77;;;20.50;99.90;;;;;;5036853;28;20540;-70
2021/08/14 05:27:59;;;;;;;7.53;6.73;;;20.50;99.90;;;;;;5036930;28;20867;-70
2021/08/14 05:30:28;;;;;;;8.57;7.30;;;20.60;99.90;;;;;;5036782;28;20473;-70
2021/08/14 05:32:55;;;;;;;9.97;8.17;;;20.60;99.90;;;;;;5037016;28;20457;-70
2021/08/14 05:35:21;;;;;;;8.80;7.80;;;20.70;99.90;;;;;;5036676;28;20482;-70
2021/08/14 05:37:49;;;;;;;11.40;8.50;;;20.80;99.90;;;;;;5036626;28;20485;-69
2021/08/14 05:40:15;;;;;;;8.27;7.47;;;20.80;99.90;;;;;;5036832;28;20856;-70
2021/08/14 05:42:42;;;;;;;10.23;8.20;;;20.90;99.90;;;;;;5036649;28;20940;-70
2021/08/14 05:45:12;;;;;;;8.10;7.30;;;20.90;99.90;;;;;;5036570;28;20460;-70
2021/08/14 05:47:39;;;;;;;8.80;7.83;;;20.90;99.90;;;;;;5036819;28;20453;-70
2021/08/14 05:50:06;;;;;;;10.67;8.10;;;21.00;99.90;;;;;;5036642;28;20470;-70
2021/08/14 05:52:35;;;;;;;8.47;7.60;;;21.00;99.90;;;;;;5036381;28;20951;-70
2021/08/14 05:55:02;;;;;;;9.10;8.20;;;21.00;99.90;;;;;;5036424;28;20823;-70
2021/08/14 05:57:28;;;;;;;10.20;8.40;;;20.90;99.90;;;;;;5036459;28;20572;-69
2021/08/14 05:59:55;;;;;;;9.30;8.37;;;20.90;99.90;;;;;;5037010;28;20468;-69
2021/08/14 06:02:23;;;;;;;11.60;8.60;;;20.70;99.90;;;;;;5036445;28;20528;-70
2021/08/14 06:04:50;;;;;;;10.70;7.93;;;20.70;99.90;;;;;;5036574;28;20868;-69
2021/08/14 06:07:17;;;;;;;9.93;8.93;;;20.80;99.90;;;;;;5036169;28;20450;-69
2021/08/14 06:09:44;;;;;;;8.93;7.53;;;20.90;99.90;;;;;;5036032;28;20477;-70
2021/08/14 06:12:11;;;;;;;9.37;8.13;;;21.00;99.90;;;;;;5036316;28;20453;-70
2021/08/14 06:14:38;;;;;;;10.47;8.10;;;21.10;99.90;;;;;;5035847;28;20453;-70
2021/08/14 06:17:05;;;;;;;9.23;7.57;;;21.10;99.90;;;;;;5035615;28;20509;-70
2021/08/14 06:19:34;;;;;;;9.83;8.83;;;21.00;99.90;;;;;;5036007;28;20549;-70
2021/08/14 06:22:00;;;;;;;10.90;8.53;;;20.90;99.90;;;;;;5036200;28;20530;-70
2021/08/14 06:24:27;;;;;;;11.30;9.40;;;20.80;99.90;;;;;;5035956;28;20460;-70
2021/08/14 06:26:54;;;;;;;10.53;8.50;;;20.80;99.90;;;;;;5035134;28;20470;-70
2021/08/14 06:29:23;;;;;;;9.90;8.67;;;20.90;99.90;;;;;;5035970;28;20500;-70
2021/08/14 06:31:50;;;;;;;12.57;9.23;;;21.00;99.90;;;;;;5035886;28;20447;-70
2021/08/14 06:34:17;;;;;;;10.20;8.53;;;21.10;99.90;;;;;;5035604;28;20968;-70
2021/08/14 06:36:45;;;;;;;11.00;8.57;;;21.20;99.90;;;;;;5035569;28;20533;-70
2021/08/14 06:39:12;;;;;;;10.03;8.70;;;21.30;99.90;;;;;;5035695;28;20533;-70
2021/08/14 06:41:38;;;;;;;9.97;9.00;;;21.20;99.90;;;;;;5035416;28;20959;-70
2021/08/14 06:44:05;;;;;;;10.83;9.13;;;21.30;99.90;;;;;;5035997;28;20532;-70
2021/08/14 06:46:32;;;;;;;10.77;8.50;;;21.40;99.90;;;;;;5035459;28;20951;-70
2021/08/14 06:49:02;;;;;;;10.20;9.20;;;21.40;99.90;;;;;;5035387;28;21011;-70
2021/08/14 06:51:29;;;;;;;11.00;9.07;;;21.50;99.90;;;;;;5035594;28;20552;-70
2021/08/14 06:53:58;;;;;;;10.30;9.30;;;21.40;99.90;;;;;;5035354;28;20932;-70
2021/08/14 06:56:24;;;;;;;14.70;9.53;;;21.40;99.90;;;;;;5035154;28;20817;-70
2021/08/14 06:58:51;;;;;;;10.23;9.13;;;21.40;99.90;;;;;;5035348;28;20492;-70
2021/08/14 07:01:18;;;;;;;11.13;9.43;;;21.50;99.90;;;;;;5035322;28;20975;-69
2021/08/14 07:03:45;;;;;;;12.23;10.13;;;21.40;99.90;;;;;;5035116;28;20451;-70
2021/08/14 07:06:20;;;;;;;11.03;9.93;;;21.40;99.90;;;;;;5034946;28;20533;-69
2021/08/14 07:08:47;;;;;;;12.53;9.97;;;21.60;99.90;;;;;;5035137;28;20861;-70
2021/08/14 07:11:16;;;;;;;14.00;10.33;;;21.60;99.90;;;;;;5035101;28;20561;-70
2021/08/14 07:13:43;;;;;;;10.80;9.33;;;21.60;99.90;;;;;;5034904;28;20446;-70
2021/08/14 07:16:10;;;;;;;11.90;10.20;;;21.60;99.90;;;;;;5034511;28;20542;-70
2021/08/14 07:18:37;;;;;;;10.50;9.10;;;21.60;99.90;;;;;;5034922;28;20479;-69
2021/08/14 07:21:04;;;;;;;10.40;9.37;;;21.60;99.90;;;;;;5034908;28;20554;-70
2021/08/14 07:23:31;;;;;;;10.90;9.77;;;21.70;99.90;;;;;;5034946;28;20557;-70
2021/08/14 07:25:58;;;;;;;10.80;9.33;;;21.70;99.90;;;;;;5034712;28;20469;-70
2021/08/14 07:28:27;;;;;;;11.20;10.00;;;21.80;99.90;;;;;;5034663;28;20443;-69
2021/08/14 07:30:55;;;;;;;11.23;9.73;;;21.80;99.90;;;;;;5034773;28;20557;-70
2021/08/14 07:33:21;;;;;;;10.77;9.50;;;21.80;99.90;;;;;;5034730;28;20446;-69
2021/08/14 07:35:48;;;;;;;11.17;9.10;;;21.90;99.90;;;;;;5034342;28;20455;-70
2021/08/14 07:38:16;;;;;;;10.50;9.03;;;22.10;99.90;;;;;;5033760;28;20483;-70
2021/08/14 07:40:43;;;;;;;9.83;8.83;;;22.20;99.90;;;;;;5034650;28;20473;-70
2021/08/14 07:43:10;;;;;;;10.40;9.30;;;22.30;99.90;;;;;;5034504;28;20447;-70
2021/08/14 07:45:38;;;;;;;11.57;10.20;;;22.40;99.90;;;;;;5034344;28;20533;-70
2021/08/14 07:48:07;;;;;;;9.97;8.97;;;22.50;99.90;;;;;;5034488;28;20435;-70
2021/08/14 07:50:35;;;;;;;10.50;9.03;;;22.70;99.90;;;;;;5034384;28;20489;-70
2021/08/14 07:53:03;;;;;;;9.47;8.50;;;22.80;99.90;;;;;;5034392;28;20513;-70
2021/08/14 07:55:30;;;;;;;11.73;9.20;;;22.90;99.90;;;;;;5034320;28;20485;-70
2021/08/14 07:57:57;;;;;;;9.67;8.70;;;23.10;99.90;;;;;;5034172;28;20474;-70
2021/08/14 08:00:25;;;;;;;9.67;8.67;;;23.10;99.90;;;;;;5034146;28;20471;-70
2021/08/14 08:02:55;;;;;;;10.20;9.20;;;23.20;99.90;;;;;;5033885;28;20450;-70
2021/08/14 08:05:22;;;;;;;10.90;9.50;;;23.30;99.90;;;;;;5034037;28;20526;-70
2021/08/14 08:07:49;;;;;;;9.67;8.67;;;23.40;99.90;;;;;;5034093;28;20465;-70
2021/08/14 08:10:17;;;;;;;10.07;9.00;;;23.40;99.90;;;;;;5033751;28;20566;-70
2021/08/14 08:12:45;;;;;;;11.80;8.90;;;23.50;99.90;;;;;;5034157;28;20451;-70
2021/08/14 08:15:13;;;;;;;11.00;9.27;;;23.60;99.90;;;;;;5033771;28;20532;-70
2021/08/14 08:17:41;;;;;;;10.20;8.73;;;24.00;99.90;;;;;;5033834;28;20483;-70
2021/08/14 08:20:12;;;;;;;9.50;8.50;;;25.10;99.90;;;;;;5033927;28;20470;-70
2021/08/14 08:22:40;;;;;;;9.60;8.60;;;25.90;99.90;;;;;;5033771;28;20446;-70
2021/08/14 08:25:07;;;;;;;8.70;7.90;;;26.60;99.90;;;;;;5033768;28;20451;-70
2021/08/14 08:27:37;;;;;;;8.80;8.00;;;27.00;99.90;;;;;;5034015;28;20933;-70
2021/08/14 08:30:05;;;;;;;9.20;8.30;;;26.90;99.90;;;;;;5033640;28;20481;-70
2021/08/14 08:32:32;;;;;;;8.80;7.90;;;26.80;99.90;;;;;;5033733;28;20469;-70
2021/08/14 08:34:59;;;;;;;8.70;7.87;;;26.80;99.90;;;;;;5033589;28;20449;-70
2021/08/14 08:37:27;;;;;;;9.13;8.20;;;26.70;99.90;;;;;;5033459;28;21006;-70
2021/08/14 08:39:54;;;;;;;8.37;7.60;;;26.70;99.90;;;;;;5033772;28;20573;-70
2021/08/14 08:42:21;;;;;;;8.10;7.20;;;26.60;99.90;;;;;;5033652;28;20447;-70
2021/08/14 08:44:48;;;;;;;9.90;7.87;;;26.40;99.90;;;;;;5033442;28;20438;-70
2021/08/14 08:47:15;;;;;;;8.47;7.20;;;26.20;99.90;;;;;;5033545;28;20458;-70
2021/08/14 08:49:51;;;;;;;8.27;7.47;;;26.10;99.90;;;;;;5033107;28;20554;-70
2021/08/14 08:52:18;;;;;;;8.13;7.27;;;26.00;99.90;;;;;;5033298;28;20958;-70
2021/08/14 08:54:46;;;;;;;8.67;7.13;;;26.00;99.90;;;;;;5033255;28;20439;-70
2021/08/14 08:57:13;;;;;;;8.50;7.57;;;26.00;99.90;;;;;;5033462;28;20443;-70
2021/08/14 08:59:40;;;;;;;7.10;6.50;;;26.40;99.90;;;;;;5033120;28;20547;-70
2021/08/14 09:02:21;;;;;;;8.10;7.40;;;26.80;99.90;;;;;;5033443;28;20804;-70
2021/08/14 09:04:48;;;;;;;8.33;7.53;;;26.80;99.90;;;;;;5033273;28;20481;-70
2021/08/14 09:07:28;;;;;;;8.00;7.20;;;27.00;99.90;;;;;;5033349;28;20465;-70
2021/08/14 09:09:59;;;;;;;8.57;7.77;;;27.50;99.90;;;;;;5033096;28;20563;-70
2021/08/14 09:12:30;;;;;;;7.70;6.90;;;28.60;98.90;;;;;;5033373;28;20438;-70
2021/08/14 09:14:57;;;;;;;8.10;7.30;;;30.40;96.70;;;;;;5033163;28;20459;-70
2021/08/14 09:17:27;;;;;;;7.83;7.00;;;32.00;93.30;;;;;;5033000;28;20822;-70
2021/08/14 09:20:06;;;;;;;7.20;6.50;;;33.40;86.80;;;;;;5033192;28;20584;-71
2021/08/14 09:22:33;;;;;;;7.00;6.40;;;34.20;79.20;;;;;;5033302;28;20435;-71
2021/08/14 09:25:13;;;;;;;8.10;7.30;;;34.90;75.50;;;;;;5033070;28;20449;-71
2021/08/14 09:27:50;;;;;;;7.67;6.97;;;35.40;68.60;;;;;;5033231;28;20457;-70
2021/08/14 09:30:17;;;;;;;7.03;6.33;;;35.90;64.40;;;;;;5033111;28;20481;-71
2021/08/14 09:32:44;;;;;;;8.30;7.60;;;35.90;63.40;;;;;;5033201;28;20453;-71
2021/08/14 09:35:11;;;;;;;6.83;6.23;;;36.10;61.40;;;;;;5032798;28;21008;-70
2021/08/14 09:37:39;;;;;;;7.17;6.57;;;37.10;59.60;;;;;;5032868;28;20533;-71
2021/08/14 09:40:08;;;;;;;6.97;6.30;;;38.30;56.80;;;;;;5033034;28;20477;-71
2021/08/14 09:42:52;;;;;;;7.03;6.33;;;37.90;54.50;;;;;;5033076;28;20493;-71
2021/08/14 09:45:20;;;;;;;6.90;6.30;;;37.90;54.10;;;;;;5032897;28;20490;-71
2021/08/14 09:47:48;;;;;;;7.17;6.57;;;38.10;52.50;;;;;;5033003;28;20530;-71
2021/08/14 09:50:15;;;;;;;6.53;6.03;;;38.10;53.30;;;;;;5032927;28;20471;-71
2021/08/14 09:52:42;;;;;;;6.80;6.20;;;38.30;52.80;;;;;;5032901;28;20474;-71
2021/08/14 09:55:14;;;;;;;6.80;6.30;;;37.80;53.60;;;;;;5032680;28;20533;-71
2021/08/14 09:57:41;;;;;;;5.83;5.33;;;38.10;52.80;;;;;;5032846;28;20435;-71
2021/08/14 10:00:11;;;;;;;6.90;6.33;;;38.60;51.20;;;;;;5033181;28;20474;-71
2021/08/14 10:02:39;;;;;;;7.10;6.50;;;38.50;50.40;;;;;;5036537;28;20446;-71
2021/08/14 10:05:07;;;;;;;7.37;6.70;;;38.80;50.00;;;;;;5036252;28;20447;-71
2021/08/14 10:07:34;;;;;;;6.70;6.13;;;39.10;48.60;;;;;;5036322;28;20450;-71
2021/08/14 10:10:01;;;;;;;6.53;6.03;;;39.10;49.80;;;;;;5036179;28;20561;-71
2021/08/14 10:12:28;;;;;;;6.43;5.93;;;39.10;49.10;;;;;;5036273;28;20442;-71
2021/08/14 10:14:55;;;;;;;7.23;6.63;;;38.80;48.60;;;;;;5036148;28;20856;-71
2021/08/14 10:17:24;;;;;;;6.87;6.27;;;39.10;48.00;;;;;;5036170;28;20545;-71
2021/08/14 10:19:53;;;;;;;6.60;6.03;;;40.00;47.90;;;;;;5035967;28;20526;-71
2021/08/14 10:22:24;;;;;;;7.07;6.50;;;40.30;47.20;;;;;;5036174;28;20453;-71
2021/08/14 10:24:51;;;;;;;7.83;7.20;;;41.40;45.60;;;;;;5035712;28;20451;-72
2021/08/14 10:27:20;;;;;;;6.63;6.13;;;42.60;44.30;;;;;;5035867;28;20453;-71
2021/08/14 10:29:49;;;;;;;8.40;7.70;;;43.00;42.60;;;;;;5035834;28;20554;-71
2021/08/14 10:32:48;;;;;;;6.90;6.40;;;43.60;40.30;;;;;;5036038;28;20489;-72
2021/08/14 10:35:34;;;;;;;6.80;6.30;;;44.10;39.90;;;;;;5035939;28;20454;-71
2021/08/14 10:38:01;;;;;;;7.00;6.50;;;43.70;38.90;;;;;;5035595;28;20925;-71
2021/08/14 10:40:57;;;;;;;6.47;5.93;;;43.20;39.90;;;;;;5035596;28;20473;-71
2021/08/14 10:43:58;;;;;;;7.00;6.50;;;43.60;41.70;;;;;;5035778;28;20447;-71
2021/08/14 10:46:49;;;;;;;7.13;6.63;;;43.20;38.40;;;;;;5035533;28;20442;-71
2021/08/14 10:49:23;;;;;;;7.57;6.97;;;41.40;40.80;;;;;;5035493;28;20467;-71
2021/08/14 10:52:12;;;;;;;7.20;6.60;;;40.90;41.30;;;;;;5035576;28;20445;-71
2021/08/14 10:55:03;;;;;;;7.23;6.63;;;40.90;41.30;;;;;;5035538;28;20439;-71
2021/08/14 10:57:49;;;;;;;6.90;6.40;;;42.00;41.50;;;;;;5035490;28;20450;-72
2021/08/14 11:00:37;;;;;;;8.07;7.33;;;42.90;40.70;;;;;;5034959;28;20881;-72
2021/08/14 11:03:13;;;;;;;6.67;6.17;;;43.50;38.40;;;;;;5035471;28;20442;-72
2021/08/14 11:05:45;;;;;;;7.40;6.80;;;43.70;37.80;;;;;;5035109;28;20525;-72
2021/08/14 11:08:29;;;;;;;7.97;7.37;;;44.00;39.50;;;;;;5035569;28;20450;-71
2021/08/14 11:10:57;;;;;;;7.90;7.20;;;42.80;39.40;;;;;;5035011;28;20495;-71
2021/08/14 11:13:42;;;;;;;7.60;7.00;;;41.70;40.90;;;;;;5035260;28;20801;-71
2021/08/14 11:16:09;;;;;;;7.77;7.00;;;41.00;41.90;;;;;;5034799;28;20812;-71
2021/08/14 11:18:56;;;;;;;7.30;6.70;;;39.70;44.10;;;;;;5034851;28;21094;-71
2021/08/14 11:21:44;;;;;;;6.90;6.40;;;38.50;44.70;;;;;;5034899;28;20984;-71
2021/08/14 11:24:32;;;;;;;6.97;6.37;;;37.00;47.60;;;;;;5035097;28;20479;-71
2021/08/14 11:26:59;;;;;;;7.97;7.20;;;36.30;50.80;;;;;;5034635;28;20534;-71
2021/08/14 11:29:26;;;;;;;7.03;6.43;;;35.20;50.50;;;;;;5034601;28;20462;-70
2021/08/14 11:31:54;;;;;;;7.30;6.70;;;34.80;52.40;;;;;;5034703;28;20875;-70
2021/08/14 11:34:22;;;;;;;7.70;7.10;;;34.70;55.00;;;;;;5034820;28;20451;-70
2021/08/14 11:36:59;;;;;;;8.50;7.70;;;34.30;55.50;;;;;;5034578;28;20857;-70
2021/08/14 11:39:30;;;;;;;7.70;6.93;;;33.70;55.10;;;;;;5034549;28;20493;-70
2021/08/14 11:41:57;;;;;;;9.37;7.30;;;33.20;56.20;;;;;;5034470;28;20942;-70
2021/08/14 11:44:25;;;;;;;8.07;7.30;;;32.40;56.20;;;;;;5034610;28;20524;-70
2021/08/14 11:47:00;;;;;;;7.60;7.00;;;32.10;58.50;;;;;;5034414;28;20442;-70
2021/08/14 11:49:27;;;;;;;8.40;7.60;;;31.90;59.30;;;;;;5034285;28;20972;-70
2021/08/14 11:52:03;;;;;;;8.40;7.60;;;32.10;60.00;;;;;;5034721;28;20540;-70
2021/08/14 11:54:31;;;;;;;8.40;7.60;;;32.40;60.60;;;;;;5034516;28;20466;-70
2021/08/14 11:57:09;;;;;;;8.37;7.57;;;32.50;57.80;;;;;;5034152;28;20533;-70
2021/08/14 11:59:36;;;;;;;7.50;6.87;;;32.70;59.90;;;;;;5034221;28;20879;-70
2021/08/14 12:02:03;;;;;;;8.07;7.30;;;32.70;59.30;;;;;;5034252;28;20945;-70
2021/08/14 12:04:30;;;;;;;7.60;6.93;;;32.70;58.80;;;;;;5034199;28;20437;-70
2021/08/14 12:06:57;;;;;;;7.73;7.03;;;32.20;59.60;;;;;;5034179;28;20798;-70
2021/08/14 12:09:26;;;;;;;7.80;7.03;;;31.80;61.00;;;;;;5033962;28;20462;-70
2021/08/14 12:11:54;;;;;;;8.30;7.50;;;31.60;60.90;;;;;;5034054;28;20454;-70
2021/08/14 12:14:22;;;;;;;8.20;7.40;;;31.40;62.80;;;;;;5033947;28;20450;-70
2021/08/14 12:16:51;;;;;;;8.57;7.73;;;31.20;63.00;;;;;;5033512;28;20953;-70
2021/08/14 12:19:20;;;;;;;8.33;7.50;;;31.20;63.10;;;;;;5033794;28;20483;-71
2021/08/14 12:21:47;;;;;;;7.90;7.20;;;31.10;64.50;;;;;;5033726;28;20447;-70
2021/08/14 12:24:15;;;;;;;8.53;7.63;;;31.10;64.30;;;;;;5033286;28;20443;-70
2021/08/14 12:26:43;;;;;;;8.10;7.33;;;30.80;63.80;;;;;;5033530;28;20445;-70
2021/08/14 12:29:12;;;;;;;7.70;7.00;;;30.80;67.60;;;;;;5033580;28;20518;-70
2021/08/14 12:31:50;;;;;;;8.03;7.23;;;30.90;65.40;;;;;;5033774;28;20542;-70
2021/08/14 12:34:28;;;;;;;8.33;7.53;;;31.00;68.40;;;;;;5033637;28;20442;-70
2021/08/14 12:37:06;;;;;;;7.67;6.97;;;31.00;65.80;;;;;;5033427;28;20450;-70
2021/08/14 12:39:48;;;;;;;8.70;7.80;;;31.30;66.40;;;;;;5033443;28;20853;-70
2021/08/14 12:42:18;;;;;;;8.40;7.70;;;31.30;64.90;;;;;;5033654;28;20447;-70
2021/08/14 12:44:45;;;;;;;7.43;6.73;;;31.60;66.60;;;;;;5033202;28;20829;-71
2021/08/14 12:47:12;;;;;;;7.00;6.40;;;31.70;64.80;;;;;;5033429;28;20452;-70
2021/08/14 12:49:39;;;;;;;8.27;7.47;;;31.80;65.80;;;;;;5033436;28;20510;-70
2021/08/14 12:52:08;;;;;;;8.80;8.00;;;31.90;63.80;;;;;;5033642;28;20453;-70
2021/08/14 12:54:36;;;;;;;7.70;7.00;;;32.00;64.60;;;;;;5033431;28;20484;-70